createdAt,value
2018-09-23T00:09:24.375Z,13.2
2018-09-23T00:24:51.779Z,13.1
2018-09-23T00:40:07.105Z,13
2018-09-23T00:55:22.412Z,13
2018-09-23T01:10:38.419Z,12.9
2018-09-23T01:25:48.821Z,12.9
2018-09-23T01:41:08.902Z,12.9
2018-09-23T01:56:25.106Z,12.8
2018-09-23T02:11:39.617Z,12.7
2018-09-23T02:26:43.909Z,12.9
2018-09-23T02:42:10.771Z,12.9
2018-09-23T02:57:26.053Z,12.9
2018-09-23T03:12:42.431Z,12.9
2018-09-23T03:27:56.936Z,12.9
2018-09-23T03:43:07.834Z,12.9
2018-09-23T03:58:28.031Z,12.9
2018-09-23T04:13:44.594Z,12.8
2018-09-23T04:28:58.742Z,12.8
2018-09-23T04:44:02.735Z,12.9
2018-09-23T04:59:29.809Z,12.9
2018-09-23T05:14:45.320Z,12.9
2018-09-23T05:30:00.636Z,13
2018-09-23T05:45:16.549Z,13.1
2018-09-23T06:00:27.464Z,13.2
2018-09-23T06:15:47.336Z,13.3
2018-09-23T06:31:03.158Z,13.6
2018-09-23T06:46:18.861Z,13.9
2018-09-23T07:01:23.687Z,14.1
2018-09-23T07:16:51.325Z,14.3
2018-09-23T07:32:08.007Z,14.3
2018-09-23T07:47:23.138Z,14.5
2018-09-23T08:02:39.185Z,14.5
2018-09-23T08:17:50.643Z,14.6
2018-09-23T08:33:13.291Z,14.5
2018-09-23T08:48:28.232Z,14.7
2018-09-23T09:03:44.855Z,15.3
2018-09-23T09:19:01.173Z,15.5
2018-09-23T09:34:17.806Z,15.5
2018-09-23T09:49:33.928Z,15.6
2018-09-23T10:04:50.446Z,16
2018-09-23T10:20:07.774Z,16.2
2018-09-23T10:35:15.791Z,16.3
2018-09-23T10:50:40.899Z,16.2
2018-09-23T11:05:57.672Z,16
2018-09-23T11:21:14.662Z,16
2018-09-23T11:36:31.198Z,15.9
2018-09-23T11:51:43.645Z,15.6
2018-09-23T12:07:04.739Z,15.7
2018-09-23T12:22:21.196Z,15.2
2018-09-23T12:37:37.469Z,15.1
2018-09-23T12:52:53.855Z,14.9
2018-09-23T13:08:09.731Z,14.8
2018-09-23T13:23:26.282Z,14.9
2018-09-23T13:38:42.755Z,14.8
2018-09-23T13:53:58.821Z,14.7
2018-09-23T14:09:05.750Z,14.5
2018-09-23T14:24:30.905Z,14.2
2018-09-23T14:39:46.787Z,14
2018-09-23T14:55:02.879Z,13.8
2018-09-23T15:10:18.947Z,13.8
2018-09-23T15:25:30.811Z,13.8
2018-09-23T15:40:51.232Z,13.8
2018-09-23T15:56:06.354Z,13.7
2018-09-23T16:11:22.124Z,13.7
2018-09-23T16:26:25.254Z,13
2018-09-23T16:41:53.392Z,12.8
2018-09-23T16:57:08.447Z,12.8
2018-09-23T17:12:24.573Z,13
2018-09-23T17:27:39.376Z,13.1
2018-09-23T17:42:48.808Z,13.1
2018-09-23T17:58:12.063Z,13.2
2018-09-23T18:13:26.690Z,13.3
2018-09-23T18:28:41.546Z,12.8
2018-09-23T18:43:57.298Z,12.3
2018-09-23T18:59:12.307Z,12
2018-09-23T19:14:27.616Z,12
2018-09-23T19:29:43.717Z,11.9
2018-09-23T19:44:56.979Z,11.4
2018-09-23T20:00:05.200Z,10.6
2018-09-23T20:15:25.713Z,9.8
2018-09-23T20:30:39.534Z,9.8
2018-09-23T20:45:53.837Z,9.6
2018-09-23T21:01:07.777Z,9.6
2018-09-23T21:16:21.990Z,9.5
2018-09-23T21:31:36.208Z,9.2
2018-09-23T21:46:50.452Z,9.1
2018-09-23T22:02:03.595Z,8.9
2018-09-23T22:17:12.596Z,9.2
2018-09-23T22:32:31.814Z,9.2
2018-09-23T22:47:45.504Z,9
2018-09-23T23:02:59.549Z,8.9
2018-09-23T23:18:13.348Z,8.9
2018-09-23T23:33:27.461Z,8.9
2018-09-23T23:48:40.966Z,8.9
